BER729 LSZH-HAAB
Flight info
| Callsign | BER729 |
|---|---|
| Flight time | N/A |
| Altitude | 33000 |
| Route | VEBIT T53 GERSA Z50 RESIA DCT LATAN/N0490F350 DCT SALUN N705 BOPIX N710 TAKRI P751 PSD/N0499F360 DCT KSL DCT ALRAP/N0495F370 UT124 AMUDO AMUDO1A |
| Aircraft | A35K/H-SDE2E3GHIJ3J4J5LM1ORWXY/LB1D1 |
Departure
| Time | 2026-05-01 12:03 |
|---|---|
| Airport | Zürich Airport (LSZH) |
Arrival
| Time | N/A |
|---|---|
| Airport | Addis Ababa Bole International Airport (HAAB) |
| Time | Latitude | Longitude | Altitude | Speed | Heading |
|---|---|---|---|---|---|
| 2026-05-01 11:15 | 47.46195 | 8.55399 | 1403 ft | 0 kts | 186° |
| 2026-05-01 11:50 | 47.46216 | 8.55402 | 1412 ft | 3 kts | 186° |
| 2026-05-01 11:51 | 47.46237 | 8.55406 | 1407 ft | 4 kts | 203° |
| 2026-05-01 11:51 | 47.46252 | 8.55419 | 1412 ft | 4 kts | 241° |
| 2026-05-01 11:51 | 47.46258 | 8.55449 | 1412 ft | 4 kts | 272° |
| 2026-05-01 11:51 | 47.46256 | 8.55488 | 1410 ft | 4 kts | 277° |
| 2026-05-01 11:52 | 47.46255 | 8.55500 | 1410 ft | 5 kts | 276° |
| 2026-05-01 11:55 | 47.46255 | 8.55499 | 1411 ft | 1 kts | 276° |
| 2026-05-01 11:55 | 47.46256 | 8.55479 | 1409 ft | 3 kts | 275° |
| 2026-05-01 11:55 | 47.46259 | 8.55435 | 1407 ft | 5 kts | 276° |
| 2026-05-01 11:56 | 47.46264 | 8.55371 | 1404 ft | 7 kts | 276° |
| 2026-05-01 11:56 | 47.46267 | 8.55336 | 1411 ft | 0 kts | 276° |
| 2026-05-01 11:56 | 47.46269 | 8.55301 | 1406 ft | 7 kts | 276° |
| 2026-05-01 11:56 | 47.46273 | 8.55247 | 1402 ft | 2 kts | 276° |
| 2026-05-01 11:57 | 47.46277 | 8.55191 | 1402 ft | 8 kts | 276° |
| 2026-05-01 11:57 | 47.46286 | 8.55078 | 1406 ft | 14 kts | 276° |
| 2026-05-01 11:57 | 47.46298 | 8.54906 | 1407 ft | 17 kts | 276° |
| 2026-05-01 11:57 | 47.46315 | 8.54763 | 1409 ft | 15 kts | 297° |
| 2026-05-01 11:58 | 47.46396 | 8.54682 | 1409 ft | 14 kts | 331° |
| 2026-05-01 11:58 | 47.46487 | 8.54619 | 1408 ft | 15 kts | 335° |
| 2026-05-01 11:58 | 47.46692 | 8.54477 | 1410 ft | 17 kts | 335° |
| 2026-05-01 11:59 | 47.46801 | 8.54411 | 1406 ft | 18 kts | 339° |
| 2026-05-01 11:59 | 47.46912 | 8.54341 | 1408 ft | 16 kts | 336° |
| 2026-05-01 11:59 | 47.47010 | 8.54274 | 1410 ft | 16 kts | 335° |
| 2026-05-01 12:00 | 47.47180 | 8.54156 | 1414 ft | 15 kts | 335° |
| 2026-05-01 12:00 | 47.47277 | 8.54089 | 1412 ft | 17 kts | 334° |
| 2026-05-01 12:00 | 47.47511 | 8.53928 | 1408 ft | 20 kts | 335° |
| 2026-05-01 12:01 | 47.47637 | 8.53842 | 1411 ft | 19 kts | 335° |
| 2026-05-01 12:01 | 47.47702 | 8.53739 | 1412 ft | 9 kts | 263° |
| 2026-05-01 12:01 | 47.47664 | 8.53677 | 1410 ft | 9 kts | 213° |
| 2026-05-01 12:01 | 47.47601 | 8.53633 | 1414 ft | 10 kts | 201° |
| 2026-05-01 12:02 | 47.47531 | 8.53622 | 1408 ft | 8 kts | 162° |
| 2026-05-01 12:02 | 47.47514 | 8.53633 | 1412 ft | 1 kts | 157° |
| 2026-05-01 12:02 | 47.47494 | 8.53645 | 1407 ft | 8 kts | 157° |
| 2026-05-01 12:02 | 47.47303 | 8.53776 | 1410 ft | 61 kts | 154° |
| 2026-05-01 12:03 | 47.46735 | 8.54173 | 1405 ft | 118 kts | 155° |
| 2026-05-01 12:03 | 47.45833 | 8.54790 | 1407 ft | 167 kts | 155° |
| 2026-05-01 12:03 | 47.44701 | 8.55560 | 1803 ft | 177 kts | 152° |
| 2026-05-01 12:03 | 47.43626 | 8.56407 | 2502 ft | 177 kts | 140° |
| 2026-05-01 12:04 | 47.43056 | 8.57965 | 3053 ft | 177 kts | 91° |
| 2026-05-01 12:04 | 47.43462 | 8.59637 | 3520 ft | 178 kts | 48° |
| 2026-05-01 12:04 | 47.44549 | 8.60477 | 3795 ft | 183 kts | 5° |
| 2026-05-01 12:04 | 47.45814 | 8.60273 | 4182 ft | 186 kts | 339° |
| 2026-05-01 12:05 | 47.46760 | 8.58951 | 4364 ft | 199 kts | 293° |
| 2026-05-01 12:05 | 47.46040 | 8.54974 | 4938 ft | 219 kts | 236° |
| 2026-05-01 12:05 | 47.45364 | 8.52939 | 5418 ft | 223 kts | 250° |
| 2026-05-01 12:06 | 47.44891 | 8.50751 | 5961 ft | 224 kts | 254° |
| 2026-05-01 12:06 | 47.44465 | 8.48500 | 6372 ft | 234 kts | 254° |
| 2026-05-01 12:06 | 47.43990 | 8.46121 | 6762 ft | 247 kts | 250° |
| 2026-05-01 12:06 | 47.43262 | 8.43799 | 7345 ft | 251 kts | 238° |
| 2026-05-01 12:07 | 47.42299 | 8.41627 | 7915 ft | 255 kts | 234° |
| 2026-05-01 12:07 | 47.41276 | 8.39477 | 8538 ft | 259 kts | 234° |
| 2026-05-01 12:07 | 47.40065 | 8.37478 | 9170 ft | 261 kts | 217° |
| 2026-05-01 12:07 | 47.38478 | 8.36203 | 9762 ft | 262 kts | 193° |
| 2026-05-01 12:08 | 47.36661 | 8.36082 | 10184 ft | 269 kts | 166° |
| 2026-05-01 12:08 | 47.34867 | 8.37025 | 10508 ft | 280 kts | 152° |
| 2026-05-01 12:08 | 47.33153 | 8.38537 | 10794 ft | 293 kts | 144° |
| 2026-05-01 12:08 | 47.31466 | 8.40344 | 11077 ft | 307 kts | 142° |
| 2026-05-01 12:09 | 47.29733 | 8.42296 | 11338 ft | 320 kts | 142° |
| 2026-05-01 12:09 | 47.27942 | 8.44281 | 11608 ft | 333 kts | 143° |
| 2026-05-01 12:09 | 47.26035 | 8.46315 | 11902 ft | 345 kts | 143° |
| 2026-05-01 12:09 | 47.24035 | 8.48373 | 12167 ft | 356 kts | 144° |
| 2026-05-01 12:10 | 47.21948 | 8.50453 | 12428 ft | 367 kts | 145° |
| 2026-05-01 12:10 | 47.17585 | 8.54718 | 13085 ft | 384 kts | 145° |
| 2026-05-01 12:10 | 47.15346 | 8.56905 | 13532 ft | 387 kts | 145° |
| 2026-05-01 12:11 | 47.10826 | 8.61330 | 14447 ft | 393 kts | 145° |
| 2026-05-01 12:11 | 47.08542 | 8.63570 | 14875 ft | 396 kts | 145° |
| 2026-05-01 12:11 | 47.06239 | 8.65832 | 15341 ft | 400 kts | 144° |
| 2026-05-01 12:12 | 47.03913 | 8.68110 | 15854 ft | 403 kts | 145° |
| 2026-05-01 12:12 | 47.01574 | 8.70381 | 16251 ft | 406 kts | 145° |
| 2026-05-01 12:12 | 46.99208 | 8.72668 | 16693 ft | 408 kts | 145° |
| 2026-05-01 12:12 | 46.96925 | 8.75162 | 17099 ft | 410 kts | 136° |
| 2026-05-01 12:13 | 46.95034 | 8.78276 | 17512 ft | 411 kts | 124° |
| 2026-05-01 12:13 | 46.93465 | 8.81793 | 17943 ft | 413 kts | 120° |
| 2026-05-01 12:13 | 46.92041 | 8.85461 | 18338 ft | 416 kts | 117° |
| 2026-05-01 12:13 | 46.90687 | 8.89223 | 18685 ft | 419 kts | 116° |
| 2026-05-01 12:14 | 46.89357 | 8.93013 | 19063 ft | 421 kts | 116° |
| 2026-05-01 12:14 | 46.88029 | 8.96787 | 19407 ft | 424 kts | 116° |
| 2026-05-01 12:14 | 46.86656 | 9.00636 | 19746 ft | 428 kts | 116° |
| 2026-05-01 12:14 | 46.85265 | 9.04485 | 20119 ft | 431 kts | 116° |
| 2026-05-01 12:15 | 46.83847 | 9.08361 | 20536 ft | 433 kts | 116° |